Time;durP1;ratioP1;P1;durP2;ratioP2;P2;SDS_P1;SDS_P2;PMS_P1;PMS_P2;Temp;Humidity;BMP_temperature;BMP_pressure;BME280_temperature;BME280_humidity;BME280_pressure;Samples;Min_cycle;Max_cycle;Signal;HPM_P1;HPM_P2
2022/05/30 09:18:26;;;;;;;;;;;13.40;99.90;;;;;;5094158;27;19912;-77
2022/05/30 09:20:51;;;;;;;;;;;13.20;99.90;;;;;;5087645;28;19925;-78
2022/05/30 09:23:18;;;;;;;;;;;13.10;99.90;;;;;;5092195;28;20375;-81
2022/05/30 09:26:01;;;;;;;;;;;12.90;99.90;;;;;;5086416;28;19928;-78
2022/05/30 09:28:39;;;;;;;;;;;13.00;99.90;;;;;;5110229;28;19925;-80
2022/05/30 09:31:23;;;;;;;;;;;13.20;99.90;;;;;;5104369;28;19924;-78
2022/05/30 09:33:54;;;;;;;;;;;13.40;99.90;;;;;;5076226;28;19966;-78
2022/05/30 09:36:21;;;;;;;;;;;13.50;99.90;;;;;;5070589;28;19928;-80
2022/05/30 09:39:06;;;;;;;;;;;13.40;99.90;;;;;;5075365;28;19990;-80
2022/05/30 09:41:38;;;;;;;;;;;13.30;99.90;;;;;;5114289;28;19924;-79
2022/05/30 09:44:12;;;;;;;;;;;13.30;99.90;;;;;;5086103;28;20033;-90
2022/05/30 09:46:42;;;;;;;;;;;13.40;99.90;;;;;;5083062;28;20008;-81
2022/05/30 09:49:15;;;;;;;;;;;13.40;99.90;;;;;;5067442;28;19986;-82
2022/05/30 09:51:43;;;;;;;;;;;13.40;99.90;;;;;;5079344;28;19920;-81
2022/05/30 09:54:10;;;;;;;;;;;13.50;99.90;;;;;;5081831;28;20365;-84
2022/05/30 09:56:38;;;;;;;;;;;13.40;99.90;;;;;;5081979;28;19920;-81
2022/05/30 09:59:23;;;;;;;;;;;13.50;99.90;;;;;;5096058;28;20027;-81
2022/05/30 10:01:49;;;;;;;;;;;13.60;99.90;;;;;;5074371;28;19979;-80
2022/05/30 10:04:36;;;;;;;;;;;13.70;99.90;;;;;;5068758;28;19927;-82
2022/05/30 10:07:10;;;;;;;;;;;13.80;99.90;;;;;;5106288;28;19924;-80
2022/05/30 10:09:39;;;;;;;;;;;13.90;99.90;;;;;;5057661;28;20673;-81
2022/05/30 10:12:05;;;;;;;;;;;13.90;99.90;;;;;;5076947;28;19928;-82
2022/05/30 10:14:34;;;;;;;;;;;14.00;99.90;;;;;;5066002;28;19920;-82
2022/05/30 10:17:13;;;;;;;;;;;14.20;99.90;;;;;;5078424;28;19920;-81
2022/05/30 10:19:41;;;;;;;;;;;14.30;99.90;;;;;;5079043;28;19921;-82
2022/05/30 10:28:16;;;;;;;;;;;14.60;99.90;;;;;;5081090;28;19986;-80
2022/05/30 10:30:54;;;;;;;;;;;14.80;99.90;;;;;;5054662;28;19924;-81
2022/05/30 10:33:22;;;;;;;;;;;14.70;99.90;;;;;;5068612;28;19929;-82
2022/05/30 10:35:54;;;;;;;;;;;14.40;99.90;;;;;;5057481;28;19927;-82
2022/05/30 10:38:38;;;;;;;;;;;14.10;99.90;;;;;;5055389;28;19921;-81
2022/05/30 10:41:08;;;;;;;;;;;14.00;99.90;;;;;;5056721;28;19976;-81
2022/05/30 10:43:46;;;;;;;;;;;13.90;99.90;;;;;;5072024;28;19931;-79
2022/05/30 10:46:17;;;;;;;;;;;13.90;99.90;;;;;;5067728;28;19986;-77
2022/05/30 10:48:52;;;;;;;;;;;14.00;99.90;;;;;;5069739;28;19920;-76
2022/05/30 10:51:18;;;;;;;;;;;13.90;99.90;;;;;;5091546;28;20026;-78
2022/05/30 10:53:43;;;;;;;;;;;13.90;99.90;;;;;;5078281;28;20349;-78
2022/05/30 10:56:14;;;;;;;;;;;13.80;99.90;;;;;;5064229;28;19920;-77
2022/05/30 10:58:42;;;;;;;;;;;13.70;99.90;;;;;;5066523;28;20260;-78
2022/05/30 11:01:12;;;;;;;;;;;13.60;99.90;;;;;;5048517;28;19935;-78
2022/05/30 11:03:50;;;;;;;;;;;13.70;99.90;;;;;;5087148;28;19928;-78
2022/05/30 11:06:16;;;;;;;;;;;13.70;99.90;;;;;;5064544;28;19920;-78
2022/05/30 11:08:41;;;;;;;;;;;13.70;99.90;;;;;;5069425;28;19925;-78
2022/05/30 11:11:17;;;;;;;;;;;13.80;99.90;;;;;;5053995;28;19927;-77
2022/05/30 11:13:46;;;;;;;;;;;13.70;99.90;;;;;;5068327;28;19943;-77
2022/05/30 11:16:11;;;;;;;;;;;13.90;99.90;;;;;;5068793;28;19935;-82
2022/05/30 11:18:57;;;;;;;;;;;13.90;99.90;;;;;;5102058;28;19920;-78
2022/05/30 11:21:32;;;;;;;;;;;14.10;99.90;;;;;;5091619;28;20023;-78
2022/05/30 11:24:02;;;;;;;;;;;14.20;99.90;;;;;;5105091;28;20367;-78
2022/05/30 11:26:42;;;;;;;;;;;14.30;99.90;;;;;;5073406;28;19967;-76
2022/05/30 11:29:14;;;;;;;;;;;14.50;99.90;;;;;;5105144;28;19928;-79
2022/05/30 11:32:01;;;;;;;;;;;14.70;99.90;;;;;;5099698;28;19920;-80
2022/05/30 11:34:26;;;;;;;;;;;14.80;99.90;;;;;;5062352;28;19931;-83
2022/05/30 11:37:04;;;;;;;;;;;15.20;99.90;;;;;;5103750;28;19924;-79
2022/05/30 11:39:39;;;;;;;;;;;15.50;99.90;;;;;;5104241;28;19932;-80
2022/05/30 11:42:12;;;;;;;;;;;15.40;99.90;;;;;;5106863;28;19924;-80
2022/05/30 11:44:45;;;;;;;;;;;15.30;99.90;;;;;;5073990;28;19920;-79
2022/05/30 11:47:29;;;;;;;;;;;15.00;99.90;;;;;;5109607;28;19924;-79
2022/05/30 11:50:07;;;;;;;;;;;15.10;99.90;;;;;;5074953;28;20311;-79
2022/05/30 11:52:41;;;;;;;;;;;15.10;99.90;;;;;;5076129;28;20274;-79
2022/05/30 11:55:20;;;;;;;;;;;15.10;99.90;;;;;;5108809;28;20216;-79
2022/05/30 11:57:52;;;;;;;;;;;15.10;99.90;;;;;;5109503;28;19973;-80
2022/05/30 12:00:30;;;;;;;;;;;15.30;99.90;;;;;;5097983;28;19927;-79
2022/05/30 12:02:59;;;;;;;;;;;15.90;99.90;;;;;;5109368;28;19920;-79
2022/05/30 12:05:24;;;;;;;;;;;16.20;99.90;;;;;;5107006;28;19962;-78
2022/05/30 12:08:19;;;;;;;;;;;15.70;99.90;;;;;;5054360;28;19924;-79
2022/05/30 12:10:45;;;;;;;;;;;15.50;99.90;;;;;;5086534;28;19924;-79
2022/05/30 12:13:37;;;;;;;;;;;15.20;99.90;;;;;;5108425;28;19924;-79
2022/05/30 12:16:07;;;;;;;;;;;15.00;99.90;;;;;;5034727;28;20009;-79
2022/05/30 12:24:30;;;;;;;;;;;14.60;99.90;;;;;;5094341;28;19967;-79
2022/05/30 12:26:57;;;;;;;;;;;14.40;99.90;;;;;;5074937;28;19920;-80
2022/05/30 12:29:35;;;;;;;;;;;14.20;99.90;;;;;;5074714;28;20233;-79
2022/05/30 12:32:19;;;;;;;;;;;14.30;99.90;;;;;;5104498;28;19920;-80
2022/05/30 12:34:57;;;;;;;;;;;14.20;99.90;;;;;;5057887;28;19968;-78
2022/05/30 12:37:43;;;;;;;;;;;14.00;99.90;;;;;;5098403;28;19927;-78
2022/05/30 12:40:13;;;;;;;;;;;14.00;99.90;;;;;;5091158;28;20015;-78
2022/05/30 12:42:43;;;;;;;;;;;13.90;99.90;;;;;;5074972;28;19923;-79
2022/05/30 12:45:15;;;;;;;;;;;13.80;99.90;;;;;;5074310;28;19920;-79
2022/05/30 12:47:47;;;;;;;;;;;13.80;99.90;;;;;;5101078;28;19999;-79
2022/05/30 12:50:14;;;;;;;;;;;13.80;99.90;;;;;;5106552;28;19935;-79
2022/05/30 12:52:51;;;;;;;;;;;13.80;99.90;;;;;;5074020;28;19920;-77
2022/05/30 12:55:30;;;;;;;;;;;13.80;99.90;;;;;;5072759;28;19924;-81
2022/05/30 12:57:55;;;;;;;;;;;13.70;99.90;;;;;;5074228;28;19924;-90
2022/05/30 13:00:21;;;;;;;;;;;13.80;99.90;;;;;;5107685;28;19972;-87
2022/05/30 13:02:49;;;;;;;;;;;13.70;99.90;;;;;;5072776;28;20050;-88
2022/05/30 13:05:17;;;;;;;;;;;13.60;99.90;;;;;;5084160;28;19927;-82
2022/05/30 13:07:42;;;;;;;;;;;13.60;99.90;;;;;;5065636;28;19994;-82
2022/05/30 13:10:09;;;;;;;;;;;13.60;99.90;;;;;;5096876;28;20298;-82
2022/05/30 13:12:51;;;;;;;;;;;13.70;99.90;;;;;;5073974;28;19924;-84
2022/05/30 13:15:19;;;;;;;;;;;13.70;99.90;;;;;;5057586;28;19928;-80
2022/05/30 13:18:01;;;;;;;;;;;13.70;99.90;;;;;;5051856;28;19924;-80
2022/05/30 13:20:30;;;;;;;;;;;13.80;99.90;;;;;;5089972;28;20027;-81
2022/05/30 13:22:58;;;;;;;;;;;13.90;99.90;;;;;;5070902;28;19924;-80
2022/05/30 13:25:36;;;;;;;;;;;13.80;99.90;;;;;;5073866;28;19959;-81
2022/05/30 13:28:03;;;;;;;;;;;13.80;99.90;;;;;;5057789;28;20329;-80
2022/05/30 13:30:29;;;;;;;;;;;13.80;99.90;;;;;;5090894;28;19920;-81
2022/05/30 13:32:54;;;;;;;;;;;13.80;99.90;;;;;;5074090;28;19997;-80
2022/05/30 13:35:25;;;;;;;;;;;13.90;99.90;;;;;;5073776;28;19920;-81
2022/05/30 13:37:56;;;;;;;;;;;13.90;99.90;;;;;;5099962;28;19920;-80
2022/05/30 13:40:25;;;;;;;;;;;13.90;99.90;;;;;;5074213;28;19924;-81
2022/05/30 13:42:50;;;;;;;;;;;13.80;99.90;;;;;;5073771;28;19920;-80
2022/05/30 13:45:18;;;;;;;;;;;13.80;99.90;;;;;;5107810;28;20061;-80
2022/05/30 13:47:43;;;;;;;;;;;13.80;99.90;;;;;;5075115;28;19920;-78
2022/05/30 13:50:09;;;;;;;;;;;13.90;99.90;;;;;;5057128;28;19926;-78
2022/05/30 13:52:36;;;;;;;;;;;13.90;99.90;;;;;;5071348;28;19927;-78
2022/05/30 13:55:05;;;;;;;;;;;13.80;99.90;;;;;;5074114;28;19932;-78
2022/05/30 13:57:30;;;;;;;;;;;13.80;99.90;;;;;;5085025;28;20321;-78
2022/05/30 13:59:58;;;;;;;;;;;13.80;99.90;;;;;;5073967;28;20003;-79
2022/05/30 14:02:26;;;;;;;;;;;13.90;99.90;;;;;;5107106;28;20314;-80
2022/05/30 14:04:56;;;;;;;;;;;13.90;99.90;;;;;;5060721;28;19930;-79
2022/05/30 14:07:24;;;;;;;;;;;13.90;99.90;;;;;;5064063;28;19924;-81
2022/05/30 14:09:51;;;;;;;;;;;14.00;99.90;;;;;;5073434;28;19920;-80
2022/05/30 14:12:18;;;;;;;;;;;14.20;99.90;;;;;;5083906;28;19928;-81
2022/05/30 14:14:45;;;;;;;;;;;14.20;99.90;;;;;;5111576;28;20400;-80
2022/05/30 14:17:12;;;;;;;;;;;14.30;99.90;;;;;;5076896;28;19924;-80
2022/05/30 14:19:38;;;;;;;;;;;14.30;99.90;;;;;;5075750;28;19920;-80
2022/05/30 14:22:12;;;;;;;;;;;14.30;99.90;;;;;;5077332;28;20124;-79
2022/05/30 14:24:52;;;;;;;;;;;14.30;99.90;;;;;;5076837;28;19920;-82
2022/05/30 14:27:18;;;;;;;;;;;14.30;99.90;;;;;;5095607;28;19951;-80
2022/05/30 14:29:46;;;;;;;;;;;14.30;99.90;;;;;;5104263;28;19964;-81
2022/05/30 14:32:17;;;;;;;;;;;14.40;99.90;;;;;;5100892;28;20019;-80
2022/05/30 14:34:54;;;;;;;;;;;14.40;99.90;;;;;;5077229;28;20335;-81
2022/05/30 14:37:26;;;;;;;;;;;14.40;99.90;;;;;;5076834;28;19962;-79
2022/05/30 14:39:53;;;;;;;;;;;14.40;99.90;;;;;;5094132;28;20011;-80
2022/05/30 14:42:20;;;;;;;;;;;14.40;99.90;;;;;;5107244;28;20317;-82
2022/05/30 14:44:51;;;;;;;;;;;14.40;99.90;;;;;;5076750;28;19927;-81
2022/05/30 14:47:30;;;;;;;;;;;14.50;99.90;;;;;;5075102;28;19990;-82
2022/05/30 14:50:05;;;;;;;;;;;14.70;99.90;;;;;;5076838;28;19920;-82
2022/05/30 14:52:34;;;;;;;;;;;14.70;99.90;;;;;;5075234;28;20283;-81
2022/05/30 14:55:03;;;;;;;;;;;14.70;99.90;;;;;;5076382;28;19920;-81
2022/05/30 14:57:30;;;;;;;;;;;14.80;99.90;;;;;;5092017;28;19920;-82
2022/05/30 14:59:55;;;;;;;;;;;14.90;99.90;;;;;;5067255;28;20017;-82
2022/05/30 15:05:07;;;;;;;;;;;15.20;99.90;;;;;;5095097;28;19920;-82
2022/05/30 15:07:34;;;;;;;;;;;15.40;99.90;;;;;;5094739;28;19920;-83
2022/05/30 15:10:01;;;;;;;;;;;15.50;99.90;;;;;;5071590;28;19920;-81
2022/05/30 15:12:26;;;;;;;;;;;15.60;99.90;;;;;;5044510;28;20066;-80
2022/05/30 15:14:52;;;;;;;;;;;15.80;99.90;;;;;;5097654;28;20378;-79
2022/05/30 15:17:17;;;;;;;;;;;16.10;99.90;;;;;;5095805;28;19932;-81
2022/05/30 15:19:43;;;;;;;;;;;16.60;99.90;;;;;;5092058;28;19920;-80
2022/05/30 15:22:10;;;;;;;;;;;17.80;99.90;;;;;;5104031;28;20004;-79
2022/05/30 15:24:42;;;;;;;;;;;18.20;99.90;;;;;;5060411;28;19920;-84
2022/05/30 15:27:08;;;;;;;;;;;18.30;99.90;;;;;;5100088;28;20372;-77
2022/05/30 15:29:33;;;;;;;;;;;18.00;99.90;;;;;;5057816;28;19927;-78
2022/05/30 15:32:04;;;;;;;;;;;17.90;99.90;;;;;;5100439;28;19934;-80
2022/05/30 15:34:29;;;;;;;;;;;17.60;99.90;;;;;;5075820;28;19920;-79
2022/05/30 15:36:55;;;;;;;;;;;17.80;99.90;;;;;;5100613;28;20383;-79
2022/05/30 15:39:21;;;;;;;;;;;18.70;99.90;;;;;;5065576;28;20726;-79
2022/05/30 15:41:57;;;;;;;;;;;19.10;99.90;;;;;;5042028;28;19924;-78
2022/05/30 15:44:25;;;;;;;;;;;19.60;99.90;;;;;;5070475;28;19994;-82
2022/05/30 15:46:51;;;;;;;;;;;19.50;99.90;;;;;;5075979;28;19920;-82
2022/05/30 15:49:17;;;;;;;;;;;19.30;99.90;;;;;;5054690;28;19924;-81
2022/05/30 15:51:45;;;;;;;;;;;19.90;99.30;;;;;;5064970;28;19920;-81
2022/05/30 15:59:40;;;;;;;;;;;19.80;97.90;;;;;;5070795;28;19920;-83
2022/05/30 16:02:06;;;;;;;;;;;20.30;97.60;;;;;;5072510;28;19924;-81
2022/05/30 16:04:32;;;;;;;;;;;20.20;97.30;;;;;;5057413;28;19924;-81
2022/05/30 16:06:58;;;;;;;;;;;19.90;96.40;;;;;;5101174;28;20017;-81
2022/05/30 16:09:26;;;;;;;;;;;20.30;96.20;;;;;;5064030;28;19921;-81
2022/05/30 16:11:53;;;;;;;;;;;20.70;94.60;;;;;;5074432;28;19924;-81
2022/05/30 16:14:18;;;;;;;;;;;20.70;93.60;;;;;;5101256;28;19920;-81
2022/05/30 16:16:44;;;;;;;;;;;20.40;93.40;;;;;;5072418;28;19953;-81
2022/05/30 16:19:10;;;;;;;;;;;20.50;93.20;;;;;;5072655;28;20375;-81
2022/05/30 16:21:35;;;;;;;;;;;21.00;93.50;;;;;;5087436;28;20426;-81
2022/05/30 16:24:02;;;;;;;;;;;21.00;91.80;;;;;;5073459;28;19924;-80
2022/05/30 16:26:29;;;;;;;;;;;20.80;90.30;;;;;;5098402;28;19928;-81
2022/05/30 16:28:55;;;;;;;;;;;20.70;90.40;;;;;;5071245;28;19970;-81
2022/05/30 16:31:21;;;;;;;;;;;20.60;91.30;;;;;;5104005;28;19920;-81
2022/05/30 16:33:47;;;;;;;;;;;20.60;91.20;;;;;;5105992;28;20004;-81
2022/05/30 16:36:13;;;;;;;;;;;19.90;88.70;;;;;;5072634;28;20337;-81
2022/05/30 16:38:39;;;;;;;;;;;19.50;92.80;;;;;;5107318;28;19927;-80
2022/05/30 16:41:05;;;;;;;;;;;19.10;94.00;;;;;;5090857;28;19943;-80
2022/05/30 16:43:31;;;;;;;;;;;19.00;93.30;;;;;;5052553;28;19963;-80
2022/05/30 16:45:57;;;;;;;;;;;19.10;93.80;;;;;;5052903;28;19967;-80
2022/05/30 16:48:30;;;;;;;;;;;19.50;94.40;;;;;;5082633;28;20314;-81
2022/05/30 16:50:57;;;;;;;;;;;20.20;93.20;;;;;;5072665;28;20017;-80
2022/05/30 16:53:22;;;;;;;;;;;20.50;91.10;;;;;;5072977;28;20305;-90
2022/05/30 16:55:49;;;;;;;;;;;20.90;90.20;;;;;;5108402;28;19966;-81
2022/05/30 16:58:15;;;;;;;;;;;20.70;89.60;;;;;;5065525;28;19920;-81
2022/05/30 17:00:41;;;;;;;;;;;20.80;90.30;;;;;;5108742;28;19926;-81
2022/05/30 17:03:07;;;;;;;;;;;20.80;88.40;;;;;;5109186;28;19924;-81
2022/05/30 17:05:33;;;;;;;;;;;21.40;89.60;;;;;;5053862;28;19920;-81
2022/05/30 17:08:00;;;;;;;;;;;21.80;90.10;;;;;;5079399;28;19924;-81
2022/05/30 17:10:26;;;;;;;;;;;22.20;84.70;;;;;;5056232;28;19920;-81
2022/05/30 17:12:51;;;;;;;;;;;22.50;81.30;;;;;;5074477;28;19924;-81
2022/05/30 17:15:17;;;;;;;;;;;22.30;78.00;;;;;;5057656;28;20003;-82
2022/05/30 17:17:43;;;;;;;;;;;21.90;78.50;;;;;;5103439;28;19932;-87
2022/05/30 17:20:10;;;;;;;;;;;21.40;78.30;;;;;;5056276;28;19985;-83
2022/05/30 17:22:36;;;;;;;;;;;20.90;79.10;;;;;;5091862;28;19927;-83
2022/05/30 17:25:02;;;;;;;;;;;20.80;83.80;;;;;;5101172;28;19924;-81
2022/05/30 17:30:12;;;;;;;;;;;20.80;84.60;;;;;;5100988;28;19925;-82
2022/05/30 17:32:40;;;;;;;;;;;20.40;87.40;;;;;;5107752;28;19949;-81
2022/05/30 17:35:06;;;;;;;;;;;20.20;87.40;;;;;;5101132;28;19931;-80
2022/05/30 17:37:32;;;;;;;;;;;20.00;90.20;;;;;;5099713;28;19932;-82
2022/05/30 17:39:57;;;;;;;;;;;19.60;91.60;;;;;;5077336;28;19969;-85
2022/05/30 17:42:23;;;;;;;;;;;19.20;94.40;;;;;;5076948;28;19920;-82
2022/05/30 17:44:49;;;;;;;;;;;19.00;94.90;;;;;;5109133;28;19971;-79
2022/05/30 17:47:18;;;;;;;;;;;18.60;95.30;;;;;;5066966;28;19979;-85
2022/05/30 17:50:02;;;;;;;;;;;18.40;97.30;;;;;;5109618;28;19920;-84
2022/05/30 17:52:36;;;;;;;;;;;18.00;97.30;;;;;;5105744;28;19943;-81
2022/05/30 17:55:03;;;;;;;;;;;17.50;99.20;;;;;;5067494;28;19963;-81
2022/05/30 17:57:29;;;;;;;;;;;17.00;99.90;;;;;;5100303;28;20391;-81
2022/05/30 17:59:55;;;;;;;;;;;16.90;99.90;;;;;;5074316;28;19928;-81
2022/05/30 18:02:20;;;;;;;;;;;16.90;99.90;;;;;;5072149;28;19943;-81
2022/05/30 18:04:46;;;;;;;;;;;16.80;99.90;;;;;;5094247;28;19932;-81
2022/05/30 18:07:12;;;;;;;;;;;16.80;99.90;;;;;;5072886;28;20382;-81
2022/05/30 18:09:37;;;;;;;;;;;16.70;99.90;;;;;;5099817;28;19920;-81
2022/05/30 18:12:22;;;;;;;;;;;16.60;99.90;;;;;;5075271;28;19928;-81
2022/05/30 18:15:11;;;;;;;;;;;16.40;99.90;;;;;;5052774;28;19920;-81
2022/05/30 18:17:49;;;;;;;;;;;16.10;99.90;;;;;;5070678;28;19924;-81
2022/05/30 18:20:16;;;;;;;;;;;16.00;99.90;;;;;;5091654;28;19936;-81
2022/05/30 18:22:48;;;;;;;;;;;16.00;99.90;;;;;;5059070;28;19931;-81
2022/05/30 18:25:25;;;;;;;;;;;15.80;99.90;;;;;;5100034;28;19954;-82
2022/05/30 18:27:54;;;;;;;;;;;15.70;99.90;;;;;;5058463;28;20566;-81
2022/05/30 18:30:24;;;;;;;;;;;15.80;99.90;;;;;;5089353;28;19932;-80
2022/05/30 18:33:09;;;;;;;;;;;15.80;99.90;;;;;;5095600;28;19921;-83
2022/05/30 18:35:44;;;;;;;;;;;15.80;99.90;;;;;;5073163;28;19931;-82
2022/05/30 18:38:12;;;;;;;;;;;15.70;99.90;;;;;;5071539;28;19943;-82
2022/05/30 18:40:41;;;;;;;;;;;15.70;99.90;;;;;;5058240;28;19939;-80
2022/05/30 18:43:21;;;;;;;;;;;15.70;99.90;;;;;;5106774;28;20430;-84
2022/05/30 18:45:50;;;;;;;;;;;15.60;99.90;;;;;;5111023;28;19924;-82
2022/05/30 18:48:26;;;;;;;;;;;15.50;99.90;;;;;;5074754;28;20399;-83
2022/05/30 18:50:52;;;;;;;;;;;15.50;99.90;;;;;;5109595;28;19978;-81
2022/05/30 18:53:17;;;;;;;;;;;15.40;99.90;;;;;;5091425;28;20346;-83
2022/05/30 18:55:47;;;;;;;;;;;15.30;99.90;;;;;;5108421;28;19928;-82
2022/05/30 18:58:15;;;;;;;;;;;15.20;99.90;;;;;;5047175;28;19920;-83
2022/05/30 19:00:41;;;;;;;;;;;15.20;99.90;;;;;;5064193;28;19965;-80
2022/05/30 19:03:11;;;;;;;;;;;15.10;99.90;;;;;;5103520;28;20014;-81
2022/05/30 19:05:37;;;;;;;;;;;15.00;99.90;;;;;;5101895;28;20003;-82
2022/05/30 19:08:03;;;;;;;;;;;15.00;99.90;;;;;;5101766;28;20003;-81
2022/05/30 19:10:30;;;;;;;;;;;15.00;99.90;;;;;;5087808;28;19920;-81
2022/05/30 19:13:03;;;;;;;;;;;15.00;99.90;;;;;;5076369;28;19932;-82
2022/05/30 19:18:20;;;;;;;;;;;14.80;99.90;;;;;;5096950;28;20366;-83
2022/05/30 19:20:46;;;;;;;;;;;14.80;99.90;;;;;;5074187;28;19971;-89
2022/05/30 19:23:11;;;;;;;;;;;14.70;99.90;;;;;;5103505;28;19990;-83
2022/05/30 19:25:37;;;;;;;;;;;14.60;99.90;;;;;;5100159;28;19920;-80
2022/05/30 19:28:08;;;;;;;;;;;14.50;99.90;;;;;;5092513;28;19920;-80
2022/05/30 19:30:34;;;;;;;;;;;14.40;99.90;;;;;;5095206;28;19921;-80
2022/05/30 19:33:01;;;;;;;;;;;14.20;99.90;;;;;;5071395;28;20360;-80
2022/05/30 19:35:32;;;;;;;;;;;14.10;99.90;;;;;;5074135;28;19920;-81
2022/05/30 19:37:58;;;;;;;;;;;14.10;99.90;;;;;;5081823;28;19963;-81
2022/05/30 19:40:26;;;;;;;;;;;14.00;99.90;;;;;;5101193;28;19920;-81
2022/05/30 19:42:52;;;;;;;;;;;13.90;99.90;;;;;;5071016;28;20302;-80
2022/05/30 19:45:18;;;;;;;;;;;13.80;99.90;;;;;;5100943;28;20268;-80
2022/05/30 19:47:44;;;;;;;;;;;13.70;99.90;;;;;;5074142;28;19972;-81
2022/05/30 19:50:10;;;;;;;;;;;13.60;99.90;;;;;;5074058;28;19920;-85
2022/05/30 19:52:36;;;;;;;;;;;13.60;99.90;;;;;;5064537;28;20012;-80
2022/05/30 19:55:10;;;;;;;;;;;13.50;99.90;;;;;;5053148;28;20305;-79
2022/05/30 19:57:36;;;;;;;;;;;13.40;99.90;;;;;;5095852;28;19924;-79
2022/05/30 20:00:06;;;;;;;;;;;13.40;99.90;;;;;;5072902;28;20253;-80
2022/05/30 20:02:32;;;;;;;;;;;13.30;99.90;;;;;;5097947;28;19935;-79
2022/05/30 20:04:57;;;;;;;;;;;13.20;99.90;;;;;;5095928;28;19924;-81
2022/05/30 20:07:23;;;;;;;;;;;13.10;99.90;;;;;;5071214;28;19923;-81
2022/05/30 20:09:48;;;;;;;;;;;13.00;99.90;;;;;;5098453;28;20403;-78
2022/05/30 20:12:14;;;;;;;;;;;12.90;99.90;;;;;;5067645;28;20378;-79
2022/05/30 20:14:40;;;;;;;;;;;12.80;99.90;;;;;;5089900;28;20280;-80
2022/05/30 20:17:05;;;;;;;;;;;12.80;99.90;;;;;;5065282;28;19920;-80
2022/05/30 20:19:32;;;;;;;;;;;12.70;99.90;;;;;;5104704;28;19997;-80
2022/05/30 20:21:58;;;;;;;;;;;12.60;99.90;;;;;;5048675;28;19920;-80
2022/05/30 20:24:23;;;;;;;;;;;12.50;99.90;;;;;;5051398;28;19921;-80
2022/05/30 20:26:50;;;;;;;;;;;12.40;99.90;;;;;;5064294;28;19920;-79
2022/05/30 20:29:16;;;;;;;;;;;12.40;99.90;;;;;;5096393;28;19928;-80
2022/05/30 20:31:41;;;;;;;;;;;12.30;99.90;;;;;;5073393;28;19977;-80
2022/05/30 20:34:07;;;;;;;;;;;12.20;99.90;;;;;;5085001;28;19924;-80
2022/05/30 20:36:33;;;;;;;;;;;12.10;99.90;;;;;;5102978;28;19927;-80
2022/05/30 20:38:59;;;;;;;;;;;12.00;99.90;;;;;;5102392;28;19924;-80
2022/05/30 20:44:09;;;;;;;;;;;11.90;99.90;;;;;;5090200;28;20402;-80
2022/05/30 20:46:35;;;;;;;;;;;11.80;99.90;;;;;;5090675;28;19975;-80
2022/05/30 20:49:01;;;;;;;;;;;11.70;99.90;;;;;;5057615;28;19928;-79
2022/05/30 20:51:28;;;;;;;;;;;11.70;99.90;;;;;;5090298;28;19925;-79
2022/05/30 20:53:54;;;;;;;;;;;11.60;99.90;;;;;;5069905;28;19920;-79
2022/05/30 20:56:20;;;;;;;;;;;11.50;99.90;;;;;;5073462;28;20276;-79
2022/05/30 20:58:45;;;;;;;;;;;11.50;99.90;;;;;;5053447;28;19932;-79
2022/05/30 21:01:15;;;;;;;;;;;11.40;99.90;;;;;;5065697;28;20045;-80
2022/05/30 21:03:42;;;;;;;;;;;11.30;99.90;;;;;;5069252;28;19935;-80
2022/05/30 21:06:09;;;;;;;;;;;11.30;99.90;;;;;;5066266;28;19962;-80
2022/05/30 21:08:35;;;;;;;;;;;11.20;99.90;;;;;;5053966;28;19924;-80
2022/05/30 21:11:00;;;;;;;;;;;11.20;99.90;;;;;;5108072;28;19920;-79
2022/05/30 21:13:26;;;;;;;;;;;11.10;99.90;;;;;;5081648;28;19968;-80
2022/05/30 21:15:54;;;;;;;;;;;11.00;99.90;;;;;;5092201;28;19951;-80
2022/05/30 21:18:40;;;;;;;;;;;11.00;99.90;;;;;;5079601;28;19971;-80
2022/05/30 21:21:06;;;;;;;;;;;10.90;99.90;;;;;;5072532;28;19924;-80
2022/05/30 21:23:34;;;;;;;;;;;10.90;99.90;;;;;;5059856;28;20418;-80
2022/05/30 21:26:00;;;;;;;;;;;10.80;99.90;;;;;;5094321;28;19989;-79
2022/05/30 21:28:26;;;;;;;;;;;10.80;99.90;;;;;;5055851;28;19932;-80
2022/05/30 21:30:52;;;;;;;;;;;10.70;99.90;;;;;;5069541;28;20004;-80
2022/05/30 21:33:18;;;;;;;;;;;10.60;99.90;;;;;;5071292;28;19921;-79
2022/05/30 21:35:44;;;;;;;;;;;10.60;99.90;;;;;;5083099;28;19982;-79
2022/05/30 21:38:09;;;;;;;;;;;10.50;99.90;;;;;;5086478;28;19958;-80
2022/05/30 21:40:35;;;;;;;;;;;10.50;99.90;;;;;;5095368;28;19928;-79
2022/05/30 21:43:01;;;;;;;;;;;10.40;99.90;;;;;;5054942;28;19921;-79
2022/05/30 21:45:27;;;;;;;;;;;10.40;99.90;;;;;;5067426;28;19924;-79
2022/05/30 21:47:53;;;;;;;;;;;10.30;99.90;;;;;;5095977;28;20054;-80
2022/05/30 21:50:20;;;;;;;;;;;10.30;99.90;;;;;;5039132;28;19927;-80
2022/05/30 21:52:46;;;;;;;;;;;10.20;99.90;;;;;;5074205;28;20599;-80
2022/05/30 21:55:12;;;;;;;;;;;10.20;99.90;;;;;;5107087;28;19924;-80
2022/05/30 21:57:50;;;;;;;;;;;10.10;99.90;;;;;;5072931;28;19942;-79
2022/05/30 22:00:23;;;;;;;;;;;10.00;99.90;;;;;;5106041;28;19975;-80
2022/05/30 22:02:52;;;;;;;;;;;10.00;99.90;;;;;;5088867;28;19939;-79
2022/05/30 22:05:18;;;;;;;;;;;9.90;99.90;;;;;;5073434;28;19927;-80
2022/05/30 22:07:44;;;;;;;;;;;9.90;99.90;;;;;;5077612;28;20264;-79
2022/05/30 22:10:10;;;;;;;;;;;9.90;99.90;;;;;;5084042;28;20384;-79
2022/05/30 22:12:39;;;;;;;;;;;9.80;99.90;;;;;;5084223;28;20309;-79
2022/05/30 22:15:06;;;;;;;;;;;9.80;99.90;;;;;;5064748;28;19924;-79
2022/05/30 22:17:32;;;;;;;;;;;9.80;99.90;;;;;;5090668;28;19990;-79
2022/05/30 22:19:57;;;;;;;;;;;9.80;99.90;;;;;;5056153;28;19959;-79
2022/05/30 22:22:23;;;;;;;;;;;9.70;99.90;;;;;;5086649;28;19921;-79
2022/05/30 22:24:48;;;;;;;;;;;9.80;99.90;;;;;;5072227;28;19924;-79
2022/05/30 22:27:14;;;;;;;;;;;9.90;99.90;;;;;;5073909;28;19927;-80
2022/05/30 22:29:41;;;;;;;;;;;9.90;99.90;;;;;;5040799;28;20245;-80
2022/05/30 22:32:08;;;;;;;;;;;9.80;99.90;;;;;;5058646;28;20011;-80
2022/05/30 22:34:33;;;;;;;;;;;9.80;99.90;;;;;;5093260;28;19927;-79
2022/05/30 22:36:59;;;;;;;;;;;9.70;99.90;;;;;;5073383;28;19920;-80
2022/05/30 22:39:25;;;;;;;;;;;9.60;99.90;;;;;;5073212;28;19932;-79
2022/05/30 22:41:50;;;;;;;;;;;9.60;99.90;;;;;;5062511;28;19920;-79
2022/05/30 22:44:16;;;;;;;;;;;9.50;99.90;;;;;;5075027;28;20280;-80
2022/05/30 22:46:41;;;;;;;;;;;9.50;99.90;;;;;;5093806;28;19929;-80
2022/05/30 22:49:07;;;;;;;;;;;9.40;99.90;;;;;;5070356;28;20368;-80
2022/05/30 22:51:33;;;;;;;;;;;9.40;99.90;;;;;;5055188;28;19928;-79
2022/05/30 22:53:59;;;;;;;;;;;9.40;99.90;;;;;;5072739;28;19982;-80
2022/05/30 22:56:25;;;;;;;;;;;9.40;99.90;;;;;;5051837;28;20380;-80
2022/05/30 22:58:50;;;;;;;;;;;9.30;99.90;;;;;;5074153;28;19943;-79
2022/05/30 23:01:17;;;;;;;;;;;9.30;99.90;;;;;;5070048;28;19947;-79
2022/05/30 23:03:42;;;;;;;;;;;9.30;99.90;;;;;;5055564;28;20323;-80
2022/05/30 23:06:08;;;;;;;;;;;9.30;99.90;;;;;;5069372;28;19920;-80
2022/05/30 23:08:34;;;;;;;;;;;9.30;99.90;;;;;;5050800;28;19921;-79
2022/05/30 23:10:59;;;;;;;;;;;9.20;99.90;;;;;;5071191;28;20059;-79
2022/05/30 23:13:32;;;;;;;;;;;9.20;99.90;;;;;;5067681;28;20015;-80
2022/05/30 23:16:00;;;;;;;;;;;9.20;99.90;;;;;;5064768;28;20292;-79
2022/05/30 23:18:25;;;;;;;;;;;9.20;99.90;;;;;;5086371;28;19935;-79
2022/05/30 23:20:52;;;;;;;;;;;9.20;99.90;;;;;;5089982;28;19924;-79
2022/05/30 23:23:19;;;;;;;;;;;9.30;99.90;;;;;;5062617;28;19949;-79
2022/05/30 23:25:45;;;;;;;;;;;9.30;99.90;;;;;;5089031;28;19961;-79
2022/05/30 23:28:11;;;;;;;;;;;9.20;99.90;;;;;;5073323;28;19929;-79
2022/05/30 23:30:41;;;;;;;;;;;9.30;99.90;;;;;;5072548;28;20376;-79
2022/05/30 23:33:07;;;;;;;;;;;9.20;99.90;;;;;;5068415;28;20400;-79
2022/05/30 23:35:33;;;;;;;;;;;9.20;99.90;;;;;;5056839;28;20327;-79
2022/05/30 23:37:59;;;;;;;;;;;9.10;99.90;;;;;;5063520;28;19928;-80
2022/05/30 23:40:25;;;;;;;;;;;9.10;99.90;;;;;;5054417;28;20428;-80
2022/05/30 23:45:35;;;;;;;;;;;9.10;99.90;;;;;;5059058;28;20422;-80
2022/05/30 23:48:01;;;;;;;;;;;9.00;99.90;;;;;;5089564;28;19920;-79
2022/05/30 23:50:27;;;;;;;;;;;9.00;99.90;;;;;;5072504;28;19931;-79
2022/05/30 23:52:53;;;;;;;;;;;9.00;99.90;;;;;;5097129;28;19928;-80
2022/05/30 23:55:20;;;;;;;;;;;9.00;99.90;;;;;;5059413;28;19920;-80
2022/05/30 23:57:46;;;;;;;;;;;9.00;99.90;;;;;;5067018;28;20451;-79
